Allegan, MI

3:50 PM EST on December 17, 2014 (GMT -0500)
Allegan | Change Station
CLOSE
Current Station
Personal Weather Station
Location: Allegan, MI
Elevation: 633 ft
Nearby Weather Stations

Elev 633 ft 42.54 °N, 85.87 °W | Updated 11 minutes ago

Overcast
Overcast
27.8 °F
Feels Like 22 °F
N
5.0
Wind Variable Wind from WNW
Gusts 11.0 mph

Today
High -- | Low -- °F
--% Chance of Precip.
Yesterday
High -- | Low -- °F
Precip. -- in
8:07 AM 5:11 PM
Waning Crescent, 20% visible
Pressure 30.17 in
Visibility 9.0 miles
Clouds Mostly Cloudy 2400 ft
Overcast 3000 ft
Windchill 22 °F
Dew Point 22 °F
Humidity 79%
Rainfall 0.00 in
Snow Depth Not available.
UV 0 out of 12
Pollen .10 out of 12
Air Quality Not available.
Flu Activity Not available.
METAR KBIV 171953Z AUTO 30009G20KT 9SM -SN BKN024 OVC030 M01/M07 A3014 RMK AO2 SNB1856 SLP215 P0000 T10111067

More Conditions Fewer Conditions

Pressure 30.17 in
Visibility 9.0 miles
Clouds Mostly Cloudy 2400 ft
Overcast 3000 ft
Windchill 22 °F
Dew Point 22 °F
Humidity 79%
Rainfall 0.00 in
Snow Depth Not available.
UV 0 out of 12
Pollen .10 out of 12
Air Quality Not available.
Flu Activity Not available.
METAR KBIV 171953Z AUTO 30009G20KT 9SM -SN BKN024 OVC030 M01/M07 A3014 RMK AO2 SNB1856 SLP215 P0000 T10111067

More Conditions Fewer Conditions

10-Day Weather Forecast

Almanac

Astronomy

Dec. 17, 2014 Rise Set
Actual Time
Civil Twilight
Nautical Twilight
Astronomical Twilight
Moon
Length of Visible Light
Length of Day
Tomorrow will be .
, % of the Moon is Illuminated

Today's Extremes

State Highs State Lows

Community

WunderPhotos

Upload Photos

1,778,803 photos uploaded!

WunderBlogs® & News

Nearby

Air Quality

  Air Quality AQ Index Pollutant
Not available.

Snow Depth

Station Depth Elevation

Earthquake Activity

City Distance Mag. Time & Date
Minimum magnitude displayed is 2.5.

Coastal Water Temperatures

Place Temperature

Nearby Weather Stations